Time;durP1;ratioP1;P1;durP2;ratioP2;P2;SDS_P1;SDS_P2;PMS_P1;PMS_P2;Temp;Humidity;BMP_temperature;BMP_pressure;BME280_temperature;BME280_humidity;BME280_pressure;Samples;Min_cycle;Max_cycle;Signal;HPM_P1;HPM_P2
2023/04/13 00:02:05;;;;;;;0.45;0.45;;;;;;;9.15;93.46;99151.56;5027056;28;20025;-70
2023/04/13 00:04:31;;;;;;;0.22;0.22;;;;;;;9.25;93.52;99155.41;4993282;28;20040;-70
2023/04/13 00:07:02;;;;;;;0.30;0.30;;;;;;;9.19;92.41;99154.25;5010410;28;20065;-70
2023/04/13 00:09:30;;;;;;;0.80;0.70;;;;;;;9.19;92.01;99156.94;5011208;28;20045;-70
2023/04/13 00:11:57;;;;;;;0.40;0.40;;;;;;;9.28;91.62;99155.41;5010629;28;20069;-70
2023/04/13 00:14:26;;;;;;;0.35;0.30;;;;;;;8.97;92.74;99148.84;5027776;28;20037;-70
2023/04/13 00:17:12;;;;;;;0.88;0.85;;;;;;;8.86;93.18;99150.75;5030306;28;20560;-71
2023/04/13 00:19:40;;;;;;;0.40;0.40;;;;;;;8.74;93.12;99148.41;4950714;29;20548;-71
2023/04/13 00:22:08;;;;;;;0.45;0.43;;;;;;;8.76;94.18;99142.66;4949893;28;20051;-70
2023/04/13 00:24:35;;;;;;;0.70;0.38;;;;;;;8.59;94.05;99138.78;4932924;29;20090;-70
2023/04/13 00:27:01;;;;;;;1.27;0.55;;;;;;;8.63;94.67;99136.84;4948109;29;20035;-70
2023/04/13 00:29:27;;;;;;;6.45;0.77;;;;;;;8.61;94.67;99144.53;4933469;29;20042;-70
2023/04/13 00:31:53;;;;;;;0.57;0.57;;;;;;;8.52;94.66;99146.78;4950283;29;20043;-70
2023/04/13 00:34:18;;;;;;;3.60;0.68;;;;;;;8.68;94.25;99147.25;4950100;29;20496;-70
2023/04/13 00:36:44;;;;;;;1.85;0.50;;;;;;;8.63;93.32;99146.84;4934535;29;20051;-70
2023/04/13 00:39:09;;;;;;;0.95;0.73;;;;;;;8.51;93.88;99152.53;4949019;29;20055;-71
2023/04/13 00:41:36;;;;;;;0.55;0.52;;;;;;;8.45;94.42;99138.72;4947712;29;20030;-71
2023/04/13 00:44:01;;;;;;;0.98;0.57;;;;;;;8.51;94.36;99137.22;4933725;29;20051;-70
2023/04/13 00:46:28;;;;;;;0.38;0.38;;;;;;;8.29;94.45;99135.59;4950356;29;20048;-70
2023/04/13 00:48:54;;;;;;;0.65;0.60;;;;;;;8.19;95.63;99131.69;4933882;29;20420;-70
2023/04/13 00:51:20;;;;;;;0.57;0.50;;;;;;;8.24;94.62;99125.22;4930525;29;20054;-70
2023/04/13 00:53:48;;;;;;;0.77;0.50;;;;;;;8.25;94.58;99129.44;4930730;29;20079;-70
2023/04/13 00:56:15;;;;;;;0.85;0.85;;;;;;;8.28;94.69;99128.69;4963893;28;20044;-70
2023/04/13 00:58:41;;;;;;;0.50;0.50;;;;;;;8.12;94.78;99126.28;5026701;28;20489;-71
2023/04/13 01:01:06;;;;;;;1.08;0.98;;;;;;;8.13;94.79;99130.50;5029732;28;20025;-70
2023/04/13 01:03:33;;;;;;;0.50;0.50;;;;;;;8.04;95.37;99122.03;5029258;28;20034;-70
2023/04/13 01:06:04;;;;;;;0.65;0.57;;;;;;;8.08;95.25;99127.41;5002454;28;20121;-70
2023/04/13 01:08:53;;;;;;;0.32;0.32;;;;;;;8.00;95.16;99123.94;4998551;28;20091;-70
2023/04/13 01:11:26;;;;;;;1.25;0.40;;;;;;;7.90;94.94;99129.22;5010483;28;20034;-70
2023/04/13 01:14:06;;;;;;;0.98;0.63;;;;;;;7.57;96.96;99124.78;4984895;28;20486;-70
2023/04/13 01:16:45;;;;;;;2.10;1.27;;;;;;;7.80;97.32;99127.25;5012462;28;20033;-70
2023/04/13 01:19:27;;;;;;;0.77;0.55;;;;;;;7.77;97.27;99133.34;5012996;28;20563;-70
2023/04/13 01:21:53;;;;;;;0.57;0.57;;;;;;;7.77;96.47;99138.72;5027051;23;20022;-51
2023/04/13 01:24:53;;;;;;;0.40;0.40;;;;;;;7.80;97.16;99136.06;4999889;28;20041;-53
2023/04/13 01:27:42;;;;;;;1.02;0.80;;;;;;;7.71;96.77;99132.94;4986377;28;20046;-51
2023/04/13 01:30:09;;;;;;;0.60;0.60;;;;;;;7.88;97.02;99136.84;4990430;28;20428;-49
2023/04/13 01:32:37;;;;;;;1.40;1.02;;;;;;;7.95;96.02;99142.28;4972996;28;20022;-50
2023/04/13 01:35:25;;;;;;;1.73;0.63;;;;;;;7.98;95.52;99141.53;4991076;28;20370;-52
2023/04/13 01:37:53;;;;;;;0.95;0.88;;;;;;;7.91;94.93;99136.91;4915071;29;20047;-54
2023/04/13 01:40:25;;;;;;;1.02;0.77;;;;;;;7.84;94.83;99130.75;4894279;29;20128;-53
2023/04/13 01:42:53;;;;;;;1.02;0.93;;;;;;;7.73;96.20;99133.34;4898176;29;20059;-54
2023/04/13 01:45:26;;;;;;;0.80;0.65;;;;;;;7.86;96.04;99139.16;4898158;29;20356;-48
2023/04/13 01:48:04;;;;;;;1.77;1.00;;;;;;;7.81;96.01;99140.28;4898248;29;20471;-55
2023/04/13 01:50:59;;;;;;;0.52;0.52;;;;;;;7.81;96.19;99134.16;4894184;29;20095;-52
2023/04/13 01:53:41;;;;;;;1.42;0.88;;;;;;;7.79;96.11;99129.16;4895947;29;20095;-51
2023/04/13 01:56:11;;;;;;;2.47;0.88;;;;;;;7.82;95.57;99141.81;4913359;29;20130;-56
2023/04/13 01:58:40;;;;;;;0.63;0.57;;;;;;;7.78;95.74;99138.34;4897465;29;20040;-51
2023/04/13 02:01:11;;;;;;;1.00;0.65;;;;;;;7.79;95.25;99139.09;4896337;29;20047;-51
2023/04/13 02:03:37;;;;;;;1.17;0.90;;;;;;;7.81;95.25;99140.28;4896662;29;20403;-50
2023/04/13 02:06:03;;;;;;;1.30;1.17;;;;;;;7.88;94.83;99139.53;4901880;29;20029;-49
2023/04/13 02:08:33;;;;;;;0.75;0.73;;;;;;;7.74;94.69;99139.47;4894808;29;20157;-49
2023/04/13 02:11:00;;;;;;;3.88;1.25;;;;;;;7.79;94.83;99133.75;4911077;29;20530;-48
2023/04/13 02:13:26;;;;;;;1.08;0.90;;;;;;;7.83;93.89;99139.91;4895379;29;20095;-53
2023/04/13 02:15:51;;;;;;;0.85;0.82;;;;;;;7.74;94.48;99145.56;4962875;28;20034;-51
2023/04/13 02:18:17;;;;;;;2.85;1.17;;;;;;;7.74;94.22;99142.16;4993515;28;20428;-49
2023/04/13 02:20:43;;;;;;;1.30;0.70;;;;;;;7.71;95.03;99140.19;4993662;28;20030;-49
2023/04/13 02:23:13;;;;;;;1.50;1.38;;;;;;;7.69;94.75;99142.47;4991837;28;20037;-49
2023/04/13 02:25:40;;;;;;;0.52;0.52;;;;;;;7.70;94.95;99136.78;4973050;28;20062;-54
2023/04/13 02:28:07;;;;;;;0.88;0.73;;;;;;;7.67;94.60;99150.91;4973750;28;20041;-52
2023/04/13 02:30:36;;;;;;;1.17;1.10;;;;;;;7.73;94.82;99151.31;4992578;28;20038;-54
2023/04/13 02:33:02;;;;;;;0.73;0.65;;;;;;;7.58;94.85;99147.00;4990829;28;20042;-51
2023/04/13 02:35:29;;;;;;;1.77;0.98;;;;;;;7.69;94.50;99145.16;4974377;28;20490;-49
2023/04/13 02:37:54;;;;;;;1.27;1.17;;;;;;;7.46;95.72;99145.38;4975295;28;20038;-49
2023/04/13 02:40:20;;;;;;;1.10;0.98;;;;;;;7.55;95.02;99153.13;4990363;28;20030;-53
2023/04/13 02:42:47;;;;;;;1.80;1.60;;;;;;;7.59;95.00;99153.91;4989854;28;20026;-51
2023/04/13 02:45:16;;;;;;;1.20;0.95;;;;;;;7.55;95.58;99153.88;4978219;28;20027;-48
2023/04/13 02:47:44;;;;;;;1.23;1.13;;;;;;;7.58;95.55;99149.69;4960411;28;20490;-51
2023/04/13 02:50:11;;;;;;;2.53;0.90;;;;;;;7.55;95.51;99158.47;4964554;28;20085;-51
2023/04/13 02:52:55;;;;;;;4.32;0.98;;;;;;;7.57;95.67;99162.28;4987578;28;20492;-49
2023/04/13 02:55:20;;;;;;;0.88;0.88;;;;;;;7.50;96.21;99156.91;4988182;28;20112;-50
2023/04/13 02:57:53;;;;;;;1.58;1.20;;;;;;;7.56;96.34;99150.06;4990205;28;20435;-49
2023/04/13 03:00:20;;;;;;;2.88;1.45;;;;;;;7.68;94.94;99151.66;4974101;28;20039;-53
2023/04/13 03:02:53;;;;;;;1.30;0.98;;;;;;;7.59;94.83;99151.22;4973682;28;20031;-52
2023/04/13 03:05:20;;;;;;;0.45;0.45;;;;;;;7.42;95.94;99154.53;4969465;28;20034;-52
2023/04/13 03:07:46;;;;;;;2.10;1.10;;;;;;;7.30;96.79;99155.56;4968353;28;20742;-52
2023/04/13 03:10:12;;;;;;;1.25;1.15;;;;;;;7.36;96.93;99156.78;4989373;28;20034;-54
2023/04/13 03:12:45;;;;;;;2.10;0.95;;;;;;;7.07;98.39;99149.63;4971410;28;20074;-52
2023/04/13 03:15:11;;;;;;;1.75;1.38;;;;;;;7.19;98.48;99139.44;4969568;28;20057;-52
2023/04/13 03:17:40;;;;;;;2.60;1.23;;;;;;;7.41;97.88;99139.59;4987169;28;20026;-54
2023/04/13 03:20:15;;;;;;;3.00;1.48;;;;;;;7.53;97.19;99144.69;4967100;28;20480;-53
2023/04/13 03:22:52;;;;;;;1.27;0.98;;;;;;;7.55;96.55;99139.72;4969601;28;20030;-49
2023/04/13 03:25:18;;;;;;;0.40;0.40;;;;;;;7.54;95.94;99140.84;4955247;28;20029;-53
2023/04/13 03:27:44;;;;;;;0.52;0.52;;;;;;;7.39;96.61;99142.66;4980080;28;20661;-50
2023/04/13 03:30:10;;;;;;;2.47;1.42;;;;;;;7.50;96.65;99129.34;4973471;28;20033;-54
2023/04/13 03:32:45;;;;;;;2.25;1.35;;;;;;;7.51;95.98;99136.25;4987419;28;20497;-57
2023/04/13 03:35:11;;;;;;;2.95;1.02;;;;;;;7.32;96.50;99145.25;5001314;23;20639;-51
2023/04/13 03:37:41;;;;;;;1.55;1.30;;;;;;;7.43;96.74;99138.09;4982516;28;20544;-49
2023/04/13 03:40:16;;;;;;;1.30;1.25;;;;;;;7.54;95.38;99149.66;4976111;28;20121;-48
2023/04/13 03:42:49;;;;;;;0.90;0.85;;;;;;;7.47;96.19;99138.13;4988597;28;20057;-47
2023/04/13 03:45:14;;;;;;;1.98;1.42;;;;;;;7.44;96.53;99141.53;4986450;28;20348;-50
2023/04/13 03:47:40;;;;;;;1.10;0.90;;;;;;;7.56;95.22;99147.38;4983093;28;20038;-51
2023/04/13 03:50:07;;;;;;;3.33;1.55;;;;;;;7.42;95.78;99139.22;4984485;28;20104;-49
2023/04/13 03:52:34;;;;;;;7.05;1.58;;;;;;;7.31;96.43;99149.09;4978603;28;20030;-48
2023/04/13 03:55:00;;;;;;;1.77;1.35;;;;;;;7.12;97.16;99152.72;4979429;28;20108;-52
2023/04/13 03:57:30;;;;;;;0.75;0.75;;;;;;;7.21;96.75;99147.84;4991156;28;20400;-55
2023/04/13 03:59:58;;;;;;;3.30;1.20;;;;;;;7.15;96.61;99151.22;4984804;28;20113;-53
2023/04/13 04:02:40;;;;;;;0.65;0.65;;;;;;;7.03;97.40;99148.81;5002849;28;20401;-54
2023/04/13 04:05:09;;;;;;;1.85;0.98;;;;;;;6.92;98.96;99131.91;4990490;28;20057;-51
2023/04/13 04:07:36;;;;;;;0.80;0.80;;;;;;;7.14;97.60;99137.06;4975336;28;20038;-47
2023/04/13 04:10:02;;;;;;;1.15;0.95;;;;;;;7.29;97.09;99141.44;4983231;28;20038;-54
2023/04/13 04:12:28;;;;;;;0.98;0.98;;;;;;;7.27;96.98;99133.00;4977906;28;20551;-49
2023/04/13 04:14:54;;;;;;;0.70;0.70;;;;;;;7.10;97.67;99144.28;4981912;28;20503;-49
2023/04/13 04:17:24;;;;;;;2.37;1.20;;;;;;;7.05;98.28;99141.97;4989033;28;20030;-49
2023/04/13 04:19:50;;;;;;;3.38;1.02;;;;;;;7.24;96.95;99144.44;4991698;28;20543;-47
2023/04/13 04:22:19;;;;;;;2.65;1.02;;;;;;;7.22;96.97;99143.25;4990202;28;20108;-48
2023/04/13 04:24:45;;;;;;;1.63;1.52;;;;;;;7.08;97.75;99145.81;4991616;28;20029;-53
2023/04/13 04:27:13;;;;;;;2.42;1.17;;;;;;;7.18;97.42;99155.88;5004580;28;20385;-50
2023/04/13 04:29:40;;;;;;;2.05;1.58;;;;;;;7.18;97.31;99148.59;4988710;28;20392;-47
2023/04/13 04:32:22;;;;;;;4.07;1.75;;;;;;;6.98;98.04;99147.25;4987717;28;20053;-47
2023/04/13 04:34:51;;;;;;;2.60;1.35;;;;;;;7.04;98.51;99153.03;4981319;28;20026;-48
2023/04/13 04:37:22;;;;;;;7.72;1.45;;;;;;;7.29;95.93;99152.16;4991366;28;20377;-56
2023/04/13 04:39:59;;;;;;;3.83;1.00;;;;;;;7.06;97.39;99150.78;4972980;28;20125;-46
2023/04/13 04:42:24;;;;;;;1.10;0.93;;;;;;;7.03;98.55;99152.28;4982019;28;20129;-49
2023/04/13 04:44:51;;;;;;;3.03;1.63;;;;;;;6.98;99.00;99146.47;4985336;28;20044;-48
2023/04/13 04:47:18;;;;;;;1.33;1.15;;;;;;;7.04;98.35;99151.16;4992225;28;20034;-46
2023/04/13 04:50:02;;;;;;;4.43;1.35;;;;;;;7.06;98.67;99159.56;4989364;28;20050;-47
2023/04/13 04:52:31;;;;;;;4.40;2.50;;;;;;;7.15;97.93;99161.94;5009401;28;20121;-45
2023/04/13 04:54:57;;;;;;;1.65;1.13;;;;;;;7.26;97.07;99150.19;4975524;28;20114;-46
2023/04/13 04:57:26;;;;;;;4.18;2.17;;;;;;;7.31;96.92;99159.81;4992150;28;20047;-46
2023/04/13 04:59:52;;;;;;;2.75;1.63;;;;;;;7.18;97.62;99158.53;4985065;28;20104;-50
2023/04/13 05:02:17;;;;;;;0.50;0.50;;;;;;;7.10;98.64;99157.69;4971281;28;20033;-47
2023/04/13 05:04:43;;;;;;;4.47;1.58;;;;;;;7.13;98.23;99156.97;4990249;28;20048;-47
2023/04/13 05:07:09;;;;;;;1.10;1.00;;;;;;;7.20;98.31;99165.03;4982536;28;20046;-47
2023/04/13 05:09:38;;;;;;;0.95;0.95;;;;;;;7.11;98.69;99164.59;4991909;28;20026;-49
2023/04/13 05:12:05;;;;;;;1.95;1.67;;;;;;;6.99;99.70;99158.72;4976709;28;20065;-51
2023/04/13 05:14:31;;;;;;;2.22;1.30;;;;;;;7.26;99.19;99160.91;4993618;28;20468;-53
2023/04/13 05:16:57;;;;;;;3.95;1.35;;;;;;;7.32;97.71;99149.88;4987424;28;20049;-54
2023/04/13 05:19:36;;;;;;;2.28;1.45;;;;;;;7.26;98.74;99160.13;4981360;28;20117;-48
2023/04/13 05:22:21;;;;;;;1.83;1.15;;;;;;;7.43;98.15;99164.88;5007884;28;20385;-48
2023/04/13 05:24:56;;;;;;;2.00;1.60;;;;;;;7.28;98.11;99165.88;4981189;28;20084;-49
2023/04/13 05:27:22;;;;;;;1.20;0.75;;;;;;;7.05;100.00;99167.94;4998939;28;20062;-49
2023/04/13 05:29:48;;;;;;;4.53;2.53;;;;;;;7.11;100.00;99175.28;5006052;28;20054;-50
2023/04/13 05:32:19;;;;;;;2.63;1.37;;;;;;;7.12;100.00;99173.38;4993342;28;20045;-48
2023/04/13 05:34:46;;;;;;;0.95;0.55;;;;;;;7.17;100.00;99171.16;4993976;28;20076;-48
2023/04/13 05:37:19;;;;;;;1.65;1.25;;;;;;;7.53;99.68;99177.56;4993799;28;20026;-46
2023/04/13 05:39:45;;;;;;;1.83;1.02;;;;;;;7.65;99.33;99182.66;4989051;28;20447;-47
2023/04/13 05:42:14;;;;;;;0.98;0.77;;;;;;;7.80;98.71;99175.50;4982855;28;20122;-54
2023/04/13 05:44:42;;;;;;;1.40;1.30;;;;;;;7.88;98.68;99169.03;5009401;28;20388;-50
2023/04/13 05:47:09;;;;;;;2.38;1.88;;;;;;;7.91;98.87;99182.47;4993488;28;20515;-47
2023/04/13 05:49:35;;;;;;;4.90;1.92;;;;;;;8.01;98.42;99176.38;4984349;28;20034;-49
2023/04/13 05:52:02;;;;;;;1.25;0.80;;;;;;;7.59;99.56;99186.81;4985920;28;20038;-49
2023/04/13 05:54:38;;;;;;;1.58;1.00;;;;;;;7.66;100.00;99189.56;4992527;28;20057;-46
2023/04/13 05:57:04;;;;;;;1.38;0.70;;;;;;;7.86;100.00;99192.75;4975420;28;20080;-48
2023/04/13 05:59:30;;;;;;;1.50;1.20;;;;;;;7.63;99.56;99192.19;4991935;28;20419;-48
2023/04/13 06:01:59;;;;;;;0.82;0.77;;;;;;;7.69;99.64;99191.47;4982024;28;21014;-52
2023/04/13 06:04:25;;;;;;;1.10;1.00;;;;;;;7.73;99.96;99196.84;4990555;28;20036;-53
2023/04/13 06:06:51;;;;;;;4.88;0.82;;;;;;;7.95;99.65;99191.31;4993426;28;20481;-52
2023/04/13 06:09:17;;;;;;;2.58;1.02;;;;;;;7.81;99.73;99198.47;4993218;28;20118;-47
2023/04/13 06:11:43;;;;;;;3.97;1.30;;;;;;;8.06;100.00;99202.06;5009986;28;20046;-52
2023/04/13 06:14:09;;;;;;;1.48;1.23;;;;;;;8.34;99.73;99202.28;5010677;28;20034;-46
2023/04/13 06:16:34;;;;;;;1.17;1.08;;;;;;;8.60;97.49;99193.97;5004870;28;20092;-46
2023/04/13 06:19:00;;;;;;;0.77;0.77;;;;;;;8.68;98.25;99197.44;5004754;28;20058;-49
2023/04/13 06:21:27;;;;;;;15.10;1.58;;;;;;;8.83;97.34;99199.81;4976688;28;20026;-53
2023/04/13 06:23:52;;;;;;;2.20;0.63;;;;;;;8.94;97.42;99205.97;5004398;28;20026;-53
2023/04/13 06:26:52;;;;;;;3.42;1.95;;;;;;;9.05;97.20;99209.47;4989381;28;20022;-54
2023/04/13 06:29:19;;;;;;;1.63;0.95;;;;;;;8.89;97.18;99209.03;4951171;28;20541;-52
2023/04/13 06:31:55;;;;;;;0.88;0.70;;;;;;;8.94;96.17;99211.34;4937243;29;20039;-47
2023/04/13 06:34:20;;;;;;;0.80;0.80;;;;;;;8.88;97.71;99207.47;4933985;28;20505;-48
2023/04/13 06:36:46;;;;;;;2.03;0.90;;;;;;;9.22;95.71;99212.56;4935143;29;20034;-54
2023/04/13 06:39:14;;;;;;;1.45;0.63;;;;;;;9.20;95.53;99204.88;4947739;28;20082;-47
2023/04/13 06:41:47;;;;;;;0.57;0.45;;;;;;;9.10;96.09;99211.78;4952128;28;20126;-48
2023/04/13 06:44:19;;;;;;;0.65;0.65;;;;;;;8.96;96.60;99214.41;4931699;29;20249;-48
2023/04/13 06:46:51;;;;;;;1.05;0.73;;;;;;;9.10;96.44;99198.34;4949870;28;20042;-51
2023/04/13 06:49:18;;;;;;;1.50;0.85;;;;;;;9.20;95.18;99204.13;4924907;28;20774;-51
2023/04/13 06:51:44;;;;;;;0.70;0.40;;;;;;;9.14;94.67;99202.97;4949924;28;20129;-50
2023/04/13 06:54:09;;;;;;;0.93;0.70;;;;;;;9.26;94.60;99202.59;4943979;28;20147;-52
2023/04/13 06:56:40;;;;;;;0.90;0.90;;;;;;;9.39;94.75;99207.22;4946401;28;20372;-51
2023/04/13 06:59:06;;;;;;;1.88;0.68;;;;;;;9.51;94.63;99206.06;4927117;29;20046;-48
2023/04/13 07:01:31;;;;;;;0.47;0.47;;;;;;;9.36;94.54;99199.94;4946168;28;20086;-52
2023/04/13 07:03:57;;;;;;;1.95;0.55;;;;;;;9.44;94.09;99201.50;4932571;28;20450;-49
2023/04/13 07:06:23;;;;;;;0.88;0.73;;;;;;;9.39;92.90;99199.16;4956856;28;20036;-56
2023/04/13 07:08:51;;;;;;;0.65;0.40;;;;;;;9.49;93.01;99197.63;4979441;28;20034;-52
2023/04/13 07:11:16;;;;;;;0.30;0.30;;;;;;;9.53;92.76;99198.41;4985781;28;20037;-47
2023/04/13 07:13:42;;;;;;;0.40;0.40;;;;;;;9.59;92.41;99208.41;4988630;28;20026;-50
2023/04/13 07:16:13;;;;;;;0.77;0.57;;;;;;;9.76;91.27;99218.38;4972520;28;20204;-54
2023/04/13 07:18:42;;;;;;;0.52;0.52;;;;;;;9.79;91.40;99214.16;4971429;28;20054;-53
2023/04/13 07:21:08;;;;;;;0.43;0.40;;;;;;;9.94;90.28;99234.50;5003366;28;20034;-53
2023/04/13 07:23:46;;;;;;;0.30;0.30;;;;;;;9.74;90.42;99217.22;4992356;28;20208;-57
2023/04/13 07:26:16;;;;;;;0.93;0.82;;;;;;;9.59;91.14;99215.69;4991785;28;20070;-55
2023/04/13 07:28:42;;;;;;;0.30;0.30;;;;;;;9.87;90.35;99213.75;4989565;28;20798;-51
2023/04/13 07:31:09;;;;;;;0.47;0.40;;;;;;;9.77;90.24;99219.94;4987357;28;20119;-48
2023/04/13 07:33:38;;;;;;;2.78;0.63;;;;;;;9.72;91.48;99219.53;4992382;28;20030;-49
2023/04/13 07:36:04;;;;;;;1.00;0.40;;;;;;;9.80;91.15;99213.78;4989392;28;20030;-48
2023/04/13 07:38:31;;;;;;;0.28;0.22;;;;;;;10.28;90.12;99222.19;4986702;28;20064;-52
2023/04/13 07:40:56;;;;;;;0.60;0.40;;;;;;;10.45;88.79;99224.06;4987690;28;20095;-56
2023/04/13 07:43:25;;;;;;;3.28;0.40;;;;;;;10.38;88.84;99234.84;4996768;28;20034;-56
2023/04/13 07:45:51;;;;;;;0.32;0.32;;;;;;;10.63;88.53;99224.03;4986249;28;20121;-47
2023/04/13 07:48:17;;;;;;;0.10;0.10;;;;;;;10.45;87.14;99237.53;4996010;28;20125;-50
2023/04/13 07:50:43;;;;;;;0.20;0.20;;;;;;;10.77;87.93;99235.53;5024298;28;20088;-49
2023/04/13 07:53:12;;;;;;;0.20;0.20;;;;;;;11.02;86.61;99246.19;4986612;28;20037;-51
2023/04/13 07:55:39;;;;;;;0.35;0.30;;;;;;;10.85;85.16;99242.41;4990152;28;20022;-54
2023/04/13 07:58:06;;;;;;;0.17;0.17;;;;;;;11.04;85.58;99243.09;4990293;28;20084;-50
2023/04/13 08:00:31;;;;;;;0.35;0.35;;;;;;;10.94;84.22;99254.69;4982466;28;20057;-51
2023/04/13 08:02:59;;;;;;;0.20;0.20;;;;;;;10.64;84.88;99261.34;4973026;28;20037;-54
2023/04/13 08:05:26;;;;;;;0.32;0.32;;;;;;;10.86;85.03;99268.16;4978771;28;20054;-50
2023/04/13 08:07:52;;;;;;;0.22;0.22;;;;;;;10.88;83.70;99249.69;4989280;28;20068;-47
2023/04/13 08:10:38;;;;;;;0.38;0.38;;;;;;;11.16;84.16;99256.13;5005516;28;20033;-53
2023/04/13 08:13:05;;;;;;;0.57;0.52;;;;;;;11.37;83.77;99254.09;4912654;29;20036;-47
2023/04/13 08:15:31;;;;;;;0.38;0.20;;;;;;;11.67;84.36;99254.28;4907942;29;20147;-48
2023/04/13 08:17:58;;;;;;;0.20;0.20;;;;;;;12.03;83.57;99248.63;4909613;29;20039;-54
2023/04/13 08:20:24;;;;;;;0.10;0.10;;;;;;;12.13;80.52;99253.94;4903399;29;20042;-52
2023/04/13 08:22:52;;;;;;;0.55;0.30;;;;;;;12.52;79.30;99267.06;4900031;29;20039;-55
2023/04/13 08:25:19;;;;;;;0.28;0.28;;;;;;;12.49;77.07;99274.03;4906944;29;20059;-55
2023/04/13 08:27:45;;;;;;;0.10;0.10;;;;;;;12.54;76.42;99270.88;4904294;29;21586;-53
2023/04/13 08:30:13;;;;;;;0.17;0.17;;;;;;;12.66;76.32;99277.69;4905468;29;20127;-47
2023/04/13 08:32:47;;;;;;;0.20;0.10;;;;;;;12.50;75.46;99270.16;4900467;29;20035;-57
2023/04/13 08:35:13;;;;;;;0.10;0.10;;;;;;;12.62;76.01;99279.66;4895554;29;20032;-57
2023/04/13 08:37:38;;;;;;;0.10;0.10;;;;;;;12.71;75.87;99277.28;4902836;29;20587;-53
2023/04/13 08:40:08;;;;;;;0.00;0.00;;;;;;;12.82;75.63;99287.94;4906858;29;20162;-50
2023/04/13 08:42:34;;;;;;;0.32;0.32;;;;;;;12.60;74.91;99284.72;4909795;29;20038;-48
2023/04/13 08:45:02;;;;;;;0.20;0.20;;;;;;;12.58;76.18;99284.38;4926864;29;20028;-48
2023/04/13 08:47:28;;;;;;;0.17;0.17;;;;;;;12.51;76.39;99287.91;4905032;29;20036;-47
2023/04/13 08:49:57;;;;;;;0.30;0.10;;;;;;;12.60;74.91;99303.63;4952086;28;20100;-54
2023/04/13 08:52:35;;;;;;;0.20;0.20;;;;;;;12.50;75.46;99299.09;4974676;28;20056;-53
2023/04/13 08:55:03;;;;;;;2.33;0.47;;;;;;;12.36;75.44;99302.69;4983073;28;20039;-55
2023/04/13 08:57:33;;;;;;;0.30;0.30;;;;;;;12.56;73.86;99300.19;4984027;28;20145;-49
2023/04/13 08:59:58;;;;;;;0.30;0.20;;;;;;;12.65;72.87;99309.38;4966392;28;20045;-56
2023/04/13 09:02:36;;;;;;;0.10;0.10;;;;;;;12.67;72.45;99315.13;4977957;28;20038;-51
2023/04/13 09:05:14;;;;;;;;;;;;;;;12.65;72.95;99341.00;4973650;28;20033;-46
2023/04/13 09:07:49;;;;;;;0.20;0.20;;;;;;;12.69;71.26;99329.00;4974306;28;19932;-48
2023/04/13 09:10:15;;;;;;;0.30;0.30;;;;;;;12.44;70.65;99339.28;4993806;28;20596;-52
2023/04/13 09:12:46;;;;;;;0.22;0.22;;;;;;;12.32;71.17;99326.25;4982640;28;20105;-52
2023/04/13 09:15:15;;;;;;;0.20;0.20;;;;;;;12.33;71.95;99338.56;5003228;28;20137;-50
2023/04/13 09:17:49;;;;;;;0.40;0.17;;;;;;;12.62;72.57;99337.16;4979903;28;20034;-54
2023/04/13 09:20:20;;;;;;;0.00;0.00;;;;;;;12.99;71.59;99335.66;4972206;28;20455;-53
2023/04/13 09:22:46;;;;;;;0.35;0.20;;;;;;;13.36;71.53;99343.72;4992806;28;20152;-47
2023/04/13 09:25:28;;;;;;;0.13;0.10;;;;;;;13.85;69.53;99356.59;5001341;28;20621;-50
2023/04/13 09:27:55;;;;;;;0.03;0.03;;;;;;;14.24;68.41;99362.22;5005213;28;20033;-48
2023/04/13 09:30:22;;;;;;;0.10;0.10;;;;;;;14.55;67.73;99368.31;5002328;28;20042;-47
2023/04/13 09:33:09;;;;;;;0.20;0.20;;;;;;;14.86;63.32;99380.53;5002252;28;20033;-47
2023/04/13 09:35:36;;;;;;;1.42;0.15;;;;;;;14.84;64.47;99366.63;4986731;28;20086;-47
2023/04/13 09:38:03;;;;;;;0.80;0.10;;;;;;;14.99;62.55;99369.84;5000224;28;20394;-55
2023/04/13 09:40:29;;;;;;;0.32;0.28;;;;;;;14.59;63.11;99373.66;5000319;28;20037;-47
2023/04/13 09:43:03;;;;;;;0.17;0.15;;;;;;;14.54;63.02;99380.31;4998487;28;20063;-54
2023/04/13 09:45:39;;;;;;;0.15;0.05;;;;;;;14.60;62.76;99373.25;5002972;28;20030;-49
2023/04/13 09:48:19;;;;;;;0.00;0.00;;;;;;;14.74;62.83;99378.44;5000298;28;20628;-55
2023/04/13 09:50:45;;;;;;;0.20;0.10;;;;;;;15.07;58.52;99374.72;5031789;22;20084;-56
2023/04/13 09:53:10;;;;;;;0.10;0.10;;;;;;;15.49;57.84;99383.22;5036553;28;20099;-55
2023/04/13 09:55:37;;;;;;;0.63;0.30;;;;;;;15.84;57.95;99390.63;5018480;28;20028;-55
2023/04/13 09:58:16;;;;;;;0.10;0.10;;;;;;;16.03;55.73;99387.88;5028241;28;20391;-54
2023/04/13 10:00:44;;;;;;;0.00;0.00;;;;;;;16.08;54.44;99403.69;5023933;28;20034;-55
2023/04/13 10:03:11;;;;;;;0.10;0.10;;;;;;;16.22;55.37;99397.91;5030409;28;20112;-56
2023/04/13 10:05:40;;;;;;;0.28;0.28;;;;;;;16.50;54.23;99412.06;5011380;28;21409;-54
2023/04/13 10:08:05;;;;;;;1.08;0.10;;;;;;;16.59;54.07;99404.81;5010615;28;20021;-56
2023/04/13 10:10:32;;;;;;;0.30;0.22;;;;;;;16.35;54.73;99406.19;5015702;28;20391;-52
2023/04/13 10:13:04;;;;;;;0.10;0.10;;;;;;;16.32;54.39;99419.84;5007432;28;20033;-57
2023/04/13 10:15:35;;;;;;;;;;;;;;;16.08;52.41;99419.22;5027689;28;20029;-55
2023/04/13 10:18:03;;;;;;;0.00;0.00;;;;;;;15.84;50.98;99421.28;5030677;28;19952;-57
2023/04/13 10:20:30;;;;;;;0.00;0.00;;;;;;;16.03;51.78;99422.41;5027376;28;20091;-57
2023/04/13 10:22:58;;;;;;;0.10;0.10;;;;;;;16.57;48.55;99417.34;5009387;28;21139;-55
2023/04/13 10:25:24;;;;;;;0.08;0.03;;;;;;;16.90;49.35;99416.09;5028389;28;20034;-57
2023/04/13 10:27:59;;;;;;;0.00;0.00;;;;;;;16.69;49.54;99435.66;5019854;28;20437;-51
2023/04/13 10:30:25;;;;;;;0.75;0.32;;;;;;;16.56;51.11;99432.09;5021405;28;20033;-56
2023/04/13 10:33:02;;;;;;;0.28;0.20;;;;;;;16.95;50.54;99424.53;5024824;28;20029;-52
2023/04/13 10:35:28;;;;;;;0.10;0.10;;;;;;;17.47;48.96;99428.97;5028620;28;20032;-55
2023/04/13 10:37:56;;;;;;;0.10;0.10;;;;;;;17.86;48.74;99437.59;5028076;28;20102;-51
2023/04/13 10:40:22;;;;;;;0.38;0.10;;;;;;;18.03;46.99;99433.59;5025357;28;20039;-56
2023/04/13 10:42:48;;;;;;;0.10;0.10;;;;;;;18.18;47.26;99435.88;5007321;28;20029;-51
2023/04/13 10:45:26;;;;;;;0.10;0.10;;;;;;;18.17;46.68;99446.03;5025719;28;20108;-53
2023/04/13 10:47:53;;;;;;;0.20;0.20;;;;;;;18.27;47.42;99446.91;5026583;28;20033;-55
2023/04/13 10:50:21;;;;;;;0.05;0.05;;;;;;;18.48;47.42;99436.13;4992130;28;20381;-56
2023/04/13 10:52:59;;;;;;;0.00;0.00;;;;;;;18.97;46.03;99449.34;5026995;28;20030;-54
2023/04/13 10:55:26;;;;;;;0.13;0.10;;;;;;;18.99;46.97;99444.22;5023580;28;20025;-56
2023/04/13 10:57:56;;;;;;;0.10;0.10;;;;;;;19.21;45.76;99453.97;5027946;28;20037;-53
2023/04/13 11:00:23;;;;;;;0.20;0.10;;;;;;;19.09;43.45;99452.03;5005629;28;20029;-55
2023/04/13 11:02:50;;;;;;;0.08;0.08;;;;;;;19.32;43.76;99448.13;5029948;28;20033;-54
2023/04/13 11:05:19;;;;;;;0.00;0.00;;;;;;;19.19;44.31;99456.38;5022279;28;20037;-54
2023/04/13 11:07:49;;;;;;;0.10;0.10;;;;;;;19.30;42.82;99461.50;5024290;28;20903;-57
2023/04/13 11:10:24;;;;;;;0.03;0.03;;;;;;;19.39;43.46;99464.31;5000021;28;20025;-55
2023/04/13 11:12:51;;;;;;;0.20;0.10;;;;;;;19.10;42.09;99475.41;5009244;28;20060;-55
2023/04/13 11:15:27;;;;;;;0.85;0.10;;;;;;;18.76;44.31;99476.13;5010630;28;20033;-56
2023/04/13 11:17:56;;;;;;;0.00;0.00;;;;;;;19.01;43.07;99478.03;5007400;28;20665;-55
2023/04/13 11:20:29;;;;;;;0.15;0.00;;;;;;;19.01;43.72;99472.59;5012986;28;20042;-57
2023/04/13 11:22:56;;;;;;;0.47;0.15;;;;;;;19.22;43.32;99476.59;5014107;28;20041;-56
2023/04/13 11:25:22;;;;;;;0.20;0.20;;;;;;;19.29;43.09;99490.75;5014607;28;20083;-52
2023/04/13 11:27:58;;;;;;;1.10;0.20;;;;;;;18.90;44.54;99500.25;5007174;28;20392;-55
2023/04/13 11:30:24;;;;;;;0.00;0.00;;;;;;;18.35;44.91;99497.28;5009734;28;20033;-55
2023/04/13 11:32:52;;;;;;;0.03;0.03;;;;;;;18.76;44.22;99499.91;4992482;28;20107;-52
2023/04/13 11:35:18;;;;;;;0.10;0.10;;;;;;;18.87;44.01;99505.81;5025360;28;20029;-53
2023/04/13 11:37:51;;;;;;;0.10;0.10;;;;;;;18.98;43.22;99503.50;5013963;28;20070;-52
2023/04/13 11:40:22;;;;;;;0.08;0.08;;;;;;;18.93;43.82;99506.75;5008905;28;20128;-58
2023/04/13 11:42:57;;;;;;;0.68;0.10;;;;;;;18.37;44.36;99506.53;4992401;28;20029;-52
2023/04/13 11:45:25;;;;;;;0.40;0.20;;;;;;;17.92;46.22;99511.38;5025182;28;20053;-58
2023/04/13 11:47:52;;;;;;;0.30;0.10;;;;;;;17.95;44.98;99508.56;5028673;28;20029;-56
2023/04/13 11:50:18;;;;;;;0.00;0.00;;;;;;;17.87;45.58;99506.47;5010559;28;20030;-54